Time;durP1;ratioP1;P1;durP2;ratioP2;P2;SDS_P1;SDS_P2;PMS_P1;PMS_P2;Temp;Humidity;BMP_temperature;BMP_pressure;BME280_temperature;BME280_humidity;BME280_pressure;Samples;Min_cycle;Max_cycle;Signal;HPM_P1;HPM_P2
2021/05/21 00:00:41;;;;;;;5.60;1.08;;;;;;;12.35;79.67;98285.16;4431066;32;20034;-75
2021/05/21 00:03:06;;;;;;;7.32;1.62;;;;;;;12.30;79.75;98275.41;4430164;32;20090;-76
2021/05/21 00:05:32;;;;;;;6.65;1.27;;;;;;;12.29;79.52;98268.25;4426500;32;20370;-75
2021/05/21 00:07:58;;;;;;;7.95;1.15;;;;;;;12.37;79.37;98274.16;4429948;32;20085;-75
2021/05/21 00:10:24;;;;;;;6.93;1.50;;;;;;;12.40;79.04;98271.09;4430796;32;20087;-75
2021/05/21 00:12:50;;;;;;;6.32;0.93;;;;;;;12.32;79.05;98267.22;4427840;32;20444;-75
2021/05/21 00:15:17;;;;;;;5.47;1.10;;;;;;;12.49;78.69;98270.06;4430360;32;20452;-75
2021/05/21 00:17:43;;;;;;;6.87;1.48;;;;;;;12.44;78.70;98263.16;4429897;32;20103;-75
2021/05/21 00:20:10;;;;;;;5.87;1.30;;;;;;;12.42;78.90;98264.94;4429081;32;20421;-75
2021/05/21 00:22:35;;;;;;;9.57;1.37;;;;;;;12.53;78.28;98259.31;4427885;32;20066;-76
2021/05/21 00:25:03;;;;;;;6.25;0.73;;;;;;;12.45;78.20;98270.31;4429497;32;20100;-75
2021/05/21 00:27:29;;;;;;;6.57;1.50;;;;;;;12.40;78.58;98257.00;4428311;32;20073;-75
2021/05/21 00:29:54;;;;;;;4.43;1.00;;;;;;;12.44;78.80;98249.03;4430594;32;20077;-75
2021/05/21 00:32:20;;;;;;;9.38;1.83;;;;;;;12.44;78.86;98246.22;4427869;32;20084;-75
2021/05/21 00:34:46;;;;;;;3.67;1.08;;;;;;;12.44;78.68;98217.25;4431208;32;20076;-75
2021/05/21 00:37:11;;;;;;;4.95;1.15;;;;;;;12.54;78.85;98238.28;4429418;32;20093;-75
2021/05/21 00:39:37;;;;;;;6.22;1.35;;;;;;;12.43;78.69;98227.78;4430462;32;20413;-76
2021/05/21 00:42:03;;;;;;;4.85;0.75;;;;;;;12.51;78.99;98217.50;4429461;32;20383;-75
2021/05/21 00:44:28;;;;;;;6.80;1.30;;;;;;;12.47;78.81;98210.59;4431718;32;20037;-75
2021/05/21 00:46:54;;;;;;;3.75;0.93;;;;;;;12.59;78.47;98210.09;4415967;32;20094;-75
2021/05/21 00:49:21;;;;;;;8.13;1.20;;;;;;;12.59;77.89;98204.44;4427845;32;20049;-74
2021/05/21 00:51:47;;;;;;;6.47;1.00;;;;;;;12.70;77.42;98198.03;4429593;32;20069;-75
2021/05/21 00:54:18;;;;;;;5.72;0.85;;;;;;;12.58;77.64;98202.87;4427356;32;20415;-75
2021/05/21 00:56:44;;;;;;;5.05;1.20;;;;;;;12.51;77.54;98209.03;4429689;32;20021;-72
2021/05/21 00:59:11;;;;;;;8.13;1.20;;;;;;;12.52;78.00;98193.66;4430139;32;20358;-73
2021/05/21 01:01:37;;;;;;;5.47;1.10;;;;;;;12.49;77.97;98191.84;4431275;32;20038;-74
2021/05/21 01:04:05;;;;;;;6.30;1.00;;;;;;;12.62;77.67;98180.84;4428592;32;20054;-74
2021/05/21 01:06:31;;;;;;;5.57;0.95;;;;;;;12.65;76.70;98177.00;4429208;32;20060;-74
2021/05/21 01:08:58;;;;;;;6.05;1.17;;;;;;;12.83;76.08;98187.75;4428967;32;20076;-74
2021/05/21 01:11:25;;;;;;;3.92;1.00;;;;;;;12.72;76.38;98184.16;4426307;32;20702;-75
2021/05/21 01:14:09;;;;;;;9.52;1.35;;;;;;;12.84;75.80;98174.41;4428332;32;20345;-75
2021/05/21 01:16:38;;;;;;;6.50;1.02;;;;;;;12.86;75.50;98175.41;4430199;32;20098;-73
2021/05/21 01:19:05;;;;;;;3.40;0.90;;;;;;;12.78;75.87;98151.84;4416121;32;20085;-74
2021/05/21 01:21:32;;;;;;;9.07;1.08;;;;;;;12.75;75.74;98149.25;4417116;32;20099;-73
2021/05/21 01:23:58;;;;;;;7.15;0.75;;;;;;;12.68;75.84;98170.31;4428661;32;20049;-73
2021/05/21 01:26:25;;;;;;;5.62;1.02;;;;;;;12.54;76.56;98131.84;4428348;32;20063;-74
2021/05/21 01:28:52;;;;;;;3.10;0.75;;;;;;;12.71;76.20;98146.72;4429808;32;20075;-74
2021/05/21 01:31:17;;;;;;;6.40;0.95;;;;;;;12.63;76.55;98145.69;4428906;32;20068;-74
2021/05/21 01:33:43;;;;;;;4.43;0.70;;;;;;;12.61;76.58;98124.94;4430168;32;20092;-75
2021/05/21 01:36:09;;;;;;;3.45;0.60;;;;;;;12.60;76.83;98137.50;4430221;32;20042;-75
2021/05/21 01:38:37;;;;;;;3.33;0.80;;;;;;;12.80;76.23;98121.06;4430292;32;20034;-75
2021/05/21 01:41:03;;;;;;;3.28;0.90;;;;;;;12.72;76.44;98111.56;4428585;32;20413;-75
2021/05/21 01:43:30;;;;;;;2.25;0.60;;;;;;;12.65;76.54;98122.62;4430864;32;20503;-75
2021/05/21 01:45:57;;;;;;;4.75;0.60;;;;;;;12.72;76.78;98113.63;4429654;32;20105;-75
2021/05/21 01:48:23;;;;;;;1.60;0.55;;;;;;;12.68;76.42;98111.09;4427901;32;20045;-75
2021/05/21 01:50:49;;;;;;;3.83;0.90;;;;;;;12.77;76.25;98115.66;4431914;32;20078;-75
2021/05/21 01:53:14;;;;;;;3.78;1.35;;;;;;;12.86;75.58;98113.31;4428662;32;20138;-74
2021/05/21 01:55:49;;;;;;;5.10;1.00;;;;;;;12.72;76.26;98131.31;4427040;32;20410;-76
2021/05/21 01:58:14;;;;;;;5.10;1.03;;;;;;;12.88;75.76;98107.94;4430052;32;20506;-76
2021/05/21 02:00:40;;;;;;;3.40;0.85;;;;;;;12.88;75.68;98115.62;4431194;32;20160;-75
2021/05/21 02:03:05;;;;;;;3.22;0.95;;;;;;;12.86;75.23;98107.69;4429145;32;20091;-75
2021/05/21 02:05:31;;;;;;;5.07;0.80;;;;;;;12.77;75.20;98101.56;4429342;32;20077;-75
2021/05/21 02:07:57;;;;;;;3.53;0.70;;;;;;;12.96;74.56;98099.72;4427821;32;20452;-76
2021/05/21 02:10:23;;;;;;;4.18;0.80;;;;;;;13.03;74.66;98085.84;4428510;32;20045;-76
2021/05/21 02:12:49;;;;;;;2.30;0.60;;;;;;;13.08;74.07;98090.72;4427609;32;20447;-76
2021/05/21 02:15:16;;;;;;;4.80;1.00;;;;;;;13.00;74.19;98088.94;4428772;32;20469;-75
2021/05/21 02:17:41;;;;;;;5.97;0.80;;;;;;;13.16;73.97;98088.13;4428735;32;20017;-75
2021/05/21 02:20:08;;;;;;;3.58;0.68;;;;;;;13.10;73.88;98082.47;4427048;32;20042;-75
2021/05/21 02:22:39;;;;;;;4.50;1.10;;;;;;;13.04;74.32;98097.94;4428675;32;20097;-75
2021/05/21 02:25:05;;;;;;;3.17;0.70;;;;;;;13.21;73.76;98073.97;4428841;32;20151;-76
2021/05/21 02:27:31;;;;;;;5.47;1.23;;;;;;;13.04;73.97;98069.69;4427810;32;20370;-75
2021/05/21 02:29:57;;;;;;;7.40;0.73;;;;;;;13.03;74.49;98059.66;4414709;32;20140;-75
2021/05/21 02:32:24;;;;;;;4.70;0.85;;;;;;;13.23;73.93;98062.91;4429197;32;20546;-76
2021/05/21 02:34:49;;;;;;;5.28;0.93;;;;;;;13.36;73.02;98065.94;4428592;32;20064;-75
2021/05/21 02:37:15;;;;;;;3.10;1.00;;;;;;;13.38;72.97;98065.41;4430051;32;20434;-75
2021/05/21 02:39:41;;;;;;;1.70;0.60;;;;;;;13.36;73.09;98065.94;4428764;32;20286;-75
2021/05/21 02:42:07;;;;;;;2.85;0.80;;;;;;;13.27;73.71;98065.47;4427819;32;20038;-75
2021/05/21 02:44:33;;;;;;;4.62;0.80;;;;;;;13.10;74.07;98057.06;4427458;32;20049;-75
2021/05/21 02:46:59;;;;;;;4.18;0.77;;;;;;;13.12;74.24;98067.84;4430805;32;20439;-76
2021/05/21 02:49:25;;;;;;;3.87;0.73;;;;;;;13.10;74.21;98062.72;4425891;32;20115;-75
2021/05/21 02:51:52;;;;;;;4.37;0.88;;;;;;;13.19;74.04;98059.59;4427691;32;20054;-74
2021/05/21 02:54:18;;;;;;;5.55;1.10;;;;;;;13.05;74.32;98068.41;4428424;32;20436;-75
2021/05/21 02:56:44;;;;;;;4.55;0.85;;;;;;;13.01;74.61;98056.63;4427841;32;20022;-76
2021/05/21 02:59:10;;;;;;;4.18;0.98;;;;;;;12.97;74.76;98044.78;4428684;32;20038;-75
2021/05/21 03:01:36;;;;;;;2.50;0.77;;;;;;;12.96;75.37;98043.25;4425310;32;21215;-75
2021/05/21 03:04:02;;;;;;;3.22;0.85;;;;;;;12.98;75.60;98043.50;4426765;32;20126;-76
2021/05/21 03:06:27;;;;;;;2.17;0.45;;;;;;;12.94;75.67;98029.66;4428708;32;20061;-76
2021/05/21 03:08:53;;;;;;;4.03;0.62;;;;;;;12.92;75.75;98035.06;4429428;32;20093;-75
2021/05/21 03:11:20;;;;;;;4.12;0.62;;;;;;;12.82;75.90;98025.34;4426702;32;20082;-75
2021/05/21 03:13:46;;;;;;;4.45;0.60;;;;;;;12.87;75.27;98016.09;4427138;32;20129;-76
2021/05/21 03:16:11;;;;;;;3.95;0.98;;;;;;;12.94;75.03;98018.38;4429177;32;20080;-74
2021/05/21 03:18:37;;;;;;;4.25;0.77;;;;;;;13.11;73.92;98021.16;4429988;32;20473;-75
2021/05/21 03:21:03;;;;;;;4.18;0.80;;;;;;;13.19;73.20;98008.03;4430474;32;20041;-74
2021/05/21 03:23:30;;;;;;;3.10;0.65;;;;;;;13.17;73.67;98002.91;4431126;32;20026;-75
2021/05/21 03:25:56;;;;;;;4.15;0.62;;;;;;;13.21;73.56;98002.59;4430428;32;20131;-75
2021/05/21 03:28:23;;;;;;;3.67;0.70;;;;;;;13.16;73.49;98007.00;4429128;32;20021;-76
2021/05/21 03:30:49;;;;;;;5.87;0.75;;;;;;;13.07;73.88;97987.53;4431593;32;20102;-75
2021/05/21 03:33:15;;;;;;;6.22;0.90;;;;;;;12.98;74.53;97979.34;4432831;32;20085;-75
2021/05/21 03:35:41;;;;;;;2.87;0.70;;;;;;;13.13;73.81;97985.44;4431052;32;20093;-75
2021/05/21 03:38:07;;;;;;;3.58;0.70;;;;;;;12.98;74.39;97976.53;4429827;32;20081;-75
2021/05/21 03:40:36;;;;;;;5.78;0.60;;;;;;;12.91;75.00;97962.97;4430508;32;20101;-75
2021/05/21 03:43:02;;;;;;;4.28;0.70;;;;;;;12.96;75.68;97958.56;4430928;32;20060;-74
2021/05/21 03:45:28;;;;;;;4.97;0.70;;;;;;;12.82;75.49;97971.72;4432015;32;20038;-75
2021/05/21 03:47:54;;;;;;;3.25;0.60;;;;;;;12.73;76.12;97946.62;4431473;32;20114;-73
2021/05/21 03:50:20;;;;;;;5.15;1.12;;;;;;;12.63;76.41;97956.69;4431691;32;20053;-74
2021/05/21 03:52:47;;;;;;;3.08;0.80;;;;;;;12.59;76.17;97961.06;4429896;32;20036;-74
2021/05/21 03:55:14;;;;;;;5.87;0.80;;;;;;;12.59;76.74;97946.97;4430866;32;20073;-75
2021/05/21 03:57:40;;;;;;;3.58;0.82;;;;;;;12.62;77.08;97932.59;4429021;32;20445;-74
2021/05/21 04:00:08;;;;;;;5.68;1.20;;;;;;;12.61;76.14;97935.94;4430548;32;20034;-74
2021/05/21 04:02:34;;;;;;;2.75;1.27;;;;;;;12.66;76.18;97930.25;4432231;32;20118;-74
2021/05/21 04:05:00;;;;;;;4.35;0.70;;;;;;;12.73;75.67;97940.25;4430359;32;20178;-75
2021/05/21 04:07:26;;;;;;;11.10;2.28;;;;;;;12.65;76.18;97937.19;4431533;32;20042;-73
2021/05/21 04:09:51;;;;;;;7.45;1.05;;;;;;;12.76;75.61;97923.03;4431482;32;20085;-75
2021/05/21 04:12:17;;;;;;;6.97;0.98;;;;;;;12.78;75.40;97917.63;4428610;32;20072;-75
2021/05/21 04:14:43;;;;;;;8.35;1.58;;;;;;;12.72;74.92;97933.81;4431064;32;20041;-75
2021/05/21 04:17:08;;;;;;;7.47;1.08;;;;;;;12.68;75.17;97924.88;4432483;32;20017;-76
2021/05/21 04:19:34;;;;;;;8.35;1.10;;;;;;;12.71;75.17;97931.53;4430184;32;20366;-74
2021/05/21 04:22:00;;;;;;;6.10;0.82;;;;;;;12.76;75.19;97914.56;4431713;32;20069;-74
2021/05/21 04:24:25;;;;;;;6.32;1.00;;;;;;;12.67;75.48;97922.56;4429946;32;20102;-75
2021/05/21 04:26:52;;;;;;;10.95;1.12;;;;;;;12.71;75.72;97915.38;4431256;32;20041;-75
2021/05/21 04:29:18;;;;;;;6.72;0.85;;;;;;;12.73;75.86;97917.66;4429776;32;20165;-74
2021/05/21 04:31:44;;;;;;;9.48;1.30;;;;;;;12.71;75.58;97914.59;4431012;32;20079;-75
2021/05/21 04:34:10;;;;;;;6.47;0.80;;;;;;;12.69;76.51;97915.13;4430384;32;20065;-75
2021/05/21 04:36:36;;;;;;;10.45;1.15;;;;;;;12.75;76.27;97913.03;4429084;32;20061;-75
2021/05/21 04:39:02;;;;;;;10.43;1.00;;;;;;;12.54;77.07;97903.38;4428042;32;20080;-75
2021/05/21 04:41:27;;;;;;;6.45;0.70;;;;;;;12.66;76.74;97907.69;4428932;32;20466;-75
2021/05/21 04:43:54;;;;;;;5.07;0.75;;;;;;;12.59;76.40;97899.00;4431255;32;20426;-74
2021/05/21 04:46:19;;;;;;;7.53;1.20;;;;;;;12.56;76.85;97894.41;4427294;32;20038;-73
2021/05/21 04:48:45;;;;;;;4.30;0.62;;;;;;;12.51;76.50;97895.97;4431514;32;20457;-73
2021/05/21 04:51:11;;;;;;;4.25;1.00;;;;;;;12.66;76.49;97884.34;4429823;32;20067;-73
2021/05/21 04:53:40;;;;;;;10.65;0.90;;;;;;;12.59;75.96;97893.38;4430409;32;20065;-74
2021/05/21 04:56:07;;;;;;;6.62;1.00;;;;;;;12.52;76.56;97891.84;4428266;32;20088;-74
2021/05/21 04:58:34;;;;;;;7.25;0.95;;;;;;;12.52;76.54;97897.50;4430606;32;20095;-74
2021/05/21 05:00:59;;;;;;;5.30;1.10;;;;;;;12.56;77.09;97891.59;4430304;32;20080;-73
2021/05/21 05:03:25;;;;;;;6.37;0.93;;;;;;;12.54;77.48;97880.81;4431339;32;20679;-72
2021/05/21 05:05:51;;;;;;;8.02;1.25;;;;;;;12.42;77.87;97884.97;4430239;32;20414;-74
2021/05/21 05:08:16;;;;;;;6.55;0.85;;;;;;;12.50;78.01;97873.91;4430346;32;20527;-74
2021/05/21 05:10:44;;;;;;;4.65;0.68;;;;;;;12.40;78.20;97869.88;4429667;32;20068;-74
2021/05/21 05:13:10;;;;;;;7.22;0.93;;;;;;;12.43;78.03;97871.66;4427159;32;20026;-73
2021/05/21 05:15:36;;;;;;;9.02;1.20;;;;;;;12.44;78.48;97867.53;4430491;32;20409;-74
2021/05/21 05:18:02;;;;;;;6.80;0.80;;;;;;;12.49;77.91;97861.88;4429207;32;20089;-73
2021/05/21 05:20:29;;;;;;;5.72;0.95;;;;;;;12.47;78.30;97855.22;4431072;32;20037;-73
2021/05/21 05:22:57;;;;;;;5.10;1.15;;;;;;;12.48;77.63;97840.59;4428303;32;20115;-74
2021/05/21 05:25:23;;;;;;;3.95;0.80;;;;;;;12.56;77.94;97846.47;4426505;32;20100;-74
2021/05/21 05:27:51;;;;;;;6.80;1.00;;;;;;;12.59;77.28;97837.72;4427836;32;20101;-74
2021/05/21 05:30:18;;;;;;;8.27;1.15;;;;;;;12.58;76.97;97843.87;4430398;32;20438;-74
2021/05/21 05:32:44;;;;;;;6.12;1.00;;;;;;;12.77;76.92;97839.94;4429857;32;20125;-74
2021/05/21 05:35:10;;;;;;;6.07;0.98;;;;;;;12.65;76.62;97846.94;4429691;32;20021;-73
2021/05/21 05:37:36;;;;;;;8.57;0.82;;;;;;;12.59;76.86;97831.31;4428097;32;20056;-74
2021/05/21 05:40:02;;;;;;;5.47;0.73;;;;;;;12.74;76.53;97835.31;4429531;32;20323;-74
2021/05/21 05:42:28;;;;;;;5.93;0.80;;;;;;;12.67;77.11;97833.03;4429649;32;20108;-74
2021/05/21 05:44:54;;;;;;;3.08;1.02;;;;;;;12.67;75.84;97833.03;4427526;32;20107;-73
2021/05/21 05:47:19;;;;;;;6.43;0.80;;;;;;;12.64;76.27;97819.25;4430495;32;20068;-73
2021/05/21 05:49:46;;;;;;;7.82;1.10;;;;;;;12.70;75.54;97845.34;4429742;32;20042;-74
2021/05/21 05:52:14;;;;;;;4.30;1.17;;;;;;;12.55;76.45;97808.28;4430280;32;20336;-74
2021/05/21 05:54:40;;;;;;;3.30;0.65;;;;;;;12.56;76.94;97838.00;4427041;32;20381;-75
2021/05/21 05:57:06;;;;;;;6.87;1.40;;;;;;;12.63;76.45;97815.63;4429600;32;20087;-75
2021/05/21 05:59:32;;;;;;;3.87;0.50;;;;;;;12.54;76.89;97821.59;4429359;32;20146;-75
2021/05/21 06:01:58;;;;;;;3.20;0.60;;;;;;;12.48;77.10;97814.44;4428523;32;20056;-74
2021/05/21 06:04:24;;;;;;;4.40;0.75;;;;;;;12.48;78.00;97817.25;4428270;32;20371;-74
2021/05/21 06:06:50;;;;;;;3.05;0.85;;;;;;;12.50;78.45;97811.88;4428875;32;20138;-73
2021/05/21 06:09:16;;;;;;;4.45;0.62;;;;;;;12.56;78.95;97807.75;4427941;32;20086;-73
2021/05/21 06:11:41;;;;;;;6.97;1.20;;;;;;;12.54;78.59;97812.34;4426895;32;20486;-74
2021/05/21 06:14:08;;;;;;;6.80;0.98;;;;;;;12.57;78.23;97814.13;4433350;32;20017;-76
2021/05/21 06:16:33;;;;;;;1.73;0.50;;;;;;;12.47;78.01;97805.25;4429428;32;20120;-73
2021/05/21 06:18:59;;;;;;;3.40;0.73;;;;;;;12.49;78.42;97804.72;4416421;32;20025;-74
2021/05/21 06:21:25;;;;;;;5.03;0.77;;;;;;;12.60;78.07;97810.28;4428272;32;20132;-74
2021/05/21 06:23:51;;;;;;;6.00;0.70;;;;;;;12.49;78.66;97799.81;4427586;32;20200;-73
2021/05/21 06:28:54;;;;;;;3.80;0.85;;;;;;;13.10;77.67;97802.25;3984595;32;15024167;-75
2021/05/21 06:31:21;;;;;;;3.92;0.60;;;;;;;13.10;77.67;97802.25;4437060;32;20139;-74
2021/05/21 06:33:47;;;;;;;6.07;1.00;;;;;;;12.67;79.04;97799.19;4438248;32;20059;-75
2021/05/21 06:36:13;;;;;;;4.78;0.77;;;;;;;12.61;79.37;97801.28;4432460;32;20045;-75
2021/05/21 06:38:40;;;;;;;5.80;1.05;;;;;;;12.59;78.86;97800.28;4435666;32;20088;-76
2021/05/21 06:41:08;;;;;;;8.18;1.17;;;;;;;12.63;78.64;97792.31;4427625;32;20454;-78
2021/05/21 06:43:35;;;;;;;5.60;0.85;;;;;;;12.66;78.90;97803.31;4436452;32;20086;-75
2021/05/21 06:46:03;;;;;;;2.90;0.60;;;;;;;12.86;78.65;97799.31;4436885;32;20100;-76
2021/05/21 06:48:31;;;;;;;5.57;0.75;;;;;;;12.93;78.51;97807.22;4432831;32;20512;-77
2021/05/21 06:50:58;;;;;;;7.50;0.90;;;;;;;12.89;78.30;97795.47;4434571;32;20029;-77
2021/05/21 06:53:24;;;;;;;6.12;0.88;;;;;;;12.87;77.75;97804.44;4439335;32;20069;-76
2021/05/21 06:55:50;;;;;;;4.93;1.10;;;;;;;12.90;78.16;97797.75;4429999;32;20070;-76
2021/05/21 06:58:19;;;;;;;3.33;0.80;;;;;;;12.87;79.25;97789.56;4421486;32;20077;-76
2021/05/21 07:00:47;;;;;;;6.20;0.60;;;;;;;12.86;78.83;97794.44;4430266;32;20496;-76
2021/05/21 07:03:14;;;;;;;3.53;0.75;;;;;;;12.82;79.94;97790.37;4420612;32;20578;-77
2021/05/21 07:05:43;;;;;;;4.80;0.73;;;;;;;12.85;79.70;97795.72;4424338;32;20037;-75
2021/05/21 07:08:09;;;;;;;5.97;0.70;;;;;;;12.81;79.34;97786.78;4423452;32;20088;-77
2021/05/21 07:10:37;;;;;;;3.17;1.08;;;;;;;12.72;79.46;97789.94;4422586;32;20534;-75
2021/05/21 07:13:12;;;;;;;5.60;0.60;;;;;;;12.54;79.78;97789.78;4419391;32;20429;-77
2021/05/21 07:15:39;;;;;;;4.80;1.52;;;;;;;12.57;80.55;97783.09;4424181;32;20108;-77
2021/05/21 07:18:06;;;;;;;2.70;0.75;;;;;;;12.64;80.76;97782.56;4420883;32;20050;-77
2021/05/21 07:20:32;;;;;;;3.15;0.70;;;;;;;12.69;80.51;97781.75;4423986;32;20082;-77
2021/05/21 07:22:58;;;;;;;4.18;0.75;;;;;;;12.70;79.74;97786.84;4424985;32;20440;-77
2021/05/21 07:25:24;;;;;;;3.62;0.88;;;;;;;12.72;79.96;97781.47;4424703;32;21126;-76
2021/05/21 07:27:50;;;;;;;4.93;0.75;;;;;;;12.85;79.96;97772.38;4423566;32;20077;-74
2021/05/21 07:30:17;;;;;;;2.47;0.40;;;;;;;12.93;79.30;97773.34;4420482;32;20073;-74
2021/05/21 07:32:44;;;;;;;1.73;0.40;;;;;;;12.76;79.75;97800.94;4426854;32;20037;-72
2021/05/21 07:35:11;;;;;;;2.67;0.40;;;;;;;12.79;79.70;97768.87;4426120;32;20077;-74
2021/05/21 07:37:36;;;;;;;2.60;0.60;;;;;;;12.87;79.47;97764.94;4424874;32;20126;-74
2021/05/21 07:40:06;;;;;;;4.43;0.57;;;;;;;13.00;79.69;97764.34;4415488;32;20081;-73
2021/05/21 07:42:33;;;;;;;2.10;0.40;;;;;;;13.38;79.05;97766.78;4413666;32;20153;-74
2021/05/21 07:44:59;;;;;;;6.43;0.57;;;;;;;13.47;76.63;97746.66;4414770;32;20092;-76
2021/05/21 07:47:25;;;;;;;3.97;0.55;;;;;;;13.57;77.06;97764.78;4413034;32;20077;-76
2021/05/21 07:49:50;;;;;;;5.25;0.65;;;;;;;13.61;76.56;97753.97;4412154;32;20077;-75
2021/05/21 07:52:16;;;;;;;3.83;0.57;;;;;;;13.66;76.90;97758.78;4415884;32;20153;-74
2021/05/21 07:54:42;;;;;;;4.85;0.60;;;;;;;13.92;76.52;97756.16;4411160;32;20441;-74
2021/05/21 07:57:08;;;;;;;3.28;0.70;;;;;;;13.71;76.39;97751.53;4413461;32;20476;-75
2021/05/21 07:59:33;;;;;;;5.62;1.25;;;;;;;13.73;75.43;97752.56;4416188;32;20073;-74
2021/05/21 08:01:59;;;;;;;5.45;0.82;;;;;;;13.62;76.12;97744.19;4416596;32;20676;-75
2021/05/21 08:04:25;;;;;;;6.30;0.80;;;;;;;13.61;75.47;97758.84;4416049;32;20191;-75
2021/05/21 08:06:51;;;;;;;3.00;0.43;;;;;;;13.70;75.71;97744.34;4416282;32;20121;-75
2021/05/21 08:09:17;;;;;;;2.37;0.40;;;;;;;13.64;75.66;97749.31;4415204;32;20069;-74
2021/05/21 08:11:44;;;;;;;5.43;1.05;;;;;;;13.69;76.66;97740.03;4409698;32;20578;-75
2021/05/21 08:14:10;;;;;;;2.65;0.65;;;;;;;13.69;75.95;97746.41;4413882;32;20169;-74
2021/05/21 08:16:37;;;;;;;3.17;0.65;;;;;;;13.74;75.99;97751.25;4413552;32;20129;-74
2021/05/21 08:19:04;;;;;;;3.67;0.60;;;;;;;14.00;75.42;97742.19;4415209;32;20409;-74
2021/05/21 08:21:30;;;;;;;2.05;0.47;;;;;;;14.25;73.97;97726.72;4413549;32;20030;-72
2021/05/21 08:23:56;;;;;;;1.73;0.35;;;;;;;14.29;73.45;97732.06;4413140;32;20049;-74
2021/05/21 08:26:24;;;;;;;4.47;0.50;;;;;;;14.65;71.67;97770.09;4416584;32;20045;-75
2021/05/21 08:28:51;;;;;;;4.50;0.40;;;;;;;14.78;71.96;97733.34;4410792;32;20750;-75
2021/05/21 08:31:17;;;;;;;5.53;0.73;;;;;;;14.97;71.72;97731.25;4415216;32;20136;-74
2021/05/21 08:33:43;;;;;;;3.00;0.62;;;;;;;15.22;70.45;97746.78;4415885;32;20544;-77
2021/05/21 08:36:11;;;;;;;2.83;1.00;;;;;;;15.50;69.28;97732.88;4414118;32;20584;-80
2021/05/21 08:38:41;;;;;;;2.80;0.77;;;;;;;15.68;67.56;97732.75;4414566;32;20470;-79
2021/05/21 08:41:14;;;;;;;3.28;0.40;;;;;;;15.85;67.91;97744.53;4412413;32;20073;-79
2021/05/21 08:43:45;;;;;;;1.60;0.32;;;;;;;15.80;67.54;97741.81;4414536;32;20066;-76
2021/05/21 08:46:11;;;;;;;2.83;0.50;;;;;;;15.78;66.62;97744.44;4411098;32;20052;-76
2021/05/21 08:48:37;;;;;;;1.95;0.52;;;;;;;15.68;67.21;97746.19;4416250;32;20679;-78
2021/05/21 08:51:03;;;;;;;3.85;0.45;;;;;;;16.04;66.75;97741.56;4417165;32;20389;-78
2021/05/21 08:53:28;;;;;;;3.33;0.47;;;;;;;16.31;65.41;97760.06;4416391;32;20695;-76
2021/05/21 08:55:54;;;;;;;1.23;0.20;;;;;;;16.19;64.72;97753.09;4413113;32;20423;-77
2021/05/21 08:58:20;;;;;;;2.25;0.40;;;;;;;16.20;63.85;97753.88;4409880;32;20096;-76
2021/05/21 09:00:46;;;;;;;1.48;0.30;;;;;;;16.12;64.74;97753.00;4411580;32;20082;-76
2021/05/21 09:03:21;;;;;;;1.45;0.40;;;;;;;16.37;62.67;97743.69;4412739;32;20058;-75
2021/05/21 09:08:49;;;;;;;0.95;0.30;;;;;;;15.79;64.13;97752.41;3973639;32;15124348;-76
2021/05/21 09:14:04;;;;;;;1.90;0.35;;;;;;;15.79;64.84;97751.63;3976372;32;15022696;-75
2021/05/21 09:16:33;;;;;;;2.53;0.40;;;;;;;15.79;64.84;97751.63;4428886;32;20452;-75
2021/05/21 09:24:29;;;;;;;3.33;0.67;;;;;;;15.66;65.46;97766.56;3994365;31;15018276;-78
2021/05/21 09:26:56;;;;;;;2.22;0.32;;;;;;;15.66;65.46;97766.56;4443209;32;20647;-74
2021/05/21 09:29:45;;;;;;;4.12;0.65;;;;;;;15.21;67.09;97762.22;4447236;32;20159;-75
2021/05/21 09:35:15;;;;;;;6.00;1.73;;;;;;;16.51;64.26;97767.16;3976364;32;15021997;-77
2021/05/21 09:37:44;;;;;;;5.37;1.08;;;;;;;16.51;64.26;97767.16;4431344;32;20061;-76
2021/05/21 09:40:13;;;;;;;6.07;1.80;;;;;;;16.43;62.83;97771.94;4431010;32;20105;-73
2021/05/21 09:42:47;;;;;;;2.22;0.98;;;;;;;16.68;62.59;97759.78;4430264;32;20472;-76
2021/05/21 09:50:33;;;;;;;1.80;0.80;;;;;;;18.83;55.35;97759.53;3975343;32;15022170;-75
2021/05/21 09:53:03;;;;;;;3.28;0.98;;;;;;;18.83;55.35;97759.53;4423795;32;20083;-75
2021/05/21 09:55:37;;;;;;;4.72;1.50;;;;;;;18.61;54.55;97753.75;4426175;32;20397;-75
2021/05/21 09:58:03;;;;;;;4.43;1.20;;;;;;;19.15;54.05;97765.47;4427398;32;20136;-76
2021/05/21 10:00:29;;;;;;;2.45;1.23;;;;;;;19.18;54.07;97758.63;4428030;32;20410;-76
2021/05/21 10:02:56;;;;;;;2.33;0.70;;;;;;;19.33;52.72;97764.38;4412570;32;20112;-76
2021/05/21 10:05:22;;;;;;;2.83;0.52;;;;;;;19.57;51.85;97765.88;4407173;32;20579;-74
2021/05/21 10:07:52;;;;;;;1.48;0.50;;;;;;;19.41;52.56;97750.09;4411180;32;20077;-75
2021/05/21 10:10:19;;;;;;;2.05;0.82;;;;;;;19.15;53.16;97759.00;4407865;32;20249;-76
2021/05/21 10:12:45;;;;;;;1.35;0.60;;;;;;;19.70;53.30;97748.59;4408196;32;20139;-76
2021/05/21 10:15:11;;;;;;;0.93;0.30;;;;;;;20.20;52.02;97758.97;4407978;32;20182;-75
2021/05/21 10:17:38;;;;;;;1.00;0.22;;;;;;;19.66;51.12;97766.06;4410676;32;20073;-76
2021/05/21 10:20:06;;;;;;;1.12;0.20;;;;;;;19.23;53.52;97756.91;4406829;32;20112;-76
2021/05/21 10:22:36;;;;;;;1.00;0.40;;;;;;;19.11;53.68;97781.41;4409179;32;20431;-79
2021/05/21 10:25:15;;;;;;;2.10;0.57;;;;;;;18.46;55.95;97765.09;4407177;32;20422;-75
2021/05/21 10:27:46;;;;;;;1.20;0.47;;;;;;;18.15;55.11;97771.94;4411480;32;20414;-76
2021/05/21 10:30:12;;;;;;;1.98;0.35;;;;;;;17.61;57.65;97770.88;4410221;32;20042;-77
2021/05/21 10:32:38;;;;;;;2.95;0.57;;;;;;;17.16;60.00;97776.16;4408737;32;20078;-74
2021/05/21 10:35:22;;;;;;;1.00;0.40;;;;;;;17.05;61.05;97773.59;4408666;32;20089;-75
2021/05/21 10:37:48;;;;;;;1.40;0.20;;;;;;;16.92;60.40;97781.41;4408436;32;20112;-74
2021/05/21 10:42:59;;;;;;;6.37;1.60;;;;;;;17.26;59.39;97788.56;3977894;32;15028660;-76
2021/05/21 10:45:25;;;;;;;1.02;0.40;;;;;;;17.26;59.39;97788.56;4432248;32;20414;-75
2021/05/21 10:48:08;;;;;;;0.73;0.25;;;;;;;16.90;59.47;97801.06;4432977;32;20193;-74
2021/05/21 10:50:37;;;;;;;4.62;0.50;;;;;;;16.91;59.38;97782.72;4431242;32;20560;-75
2021/05/21 10:53:05;;;;;;;6.53;0.73;;;;;;;17.33;58.35;97785.03;4431813;32;20076;-76
2021/05/21 10:55:50;;;;;;;1.80;0.28;;;;;;;17.41;58.56;97780.16;4428312;32;20094;-74
2021/05/21 10:58:17;;;;;;;;;;;;;;;17.14;58.72;97800.75;4428850;32;20100;-75
2021/05/21 11:04:01;;;;;;;2.80;0.50;;;;;;;17.50;57.63;97787.47;3983309;31;15014662;-75
2021/05/21 11:06:31;;;;;;;0.57;0.28;;;;;;;17.50;57.63;97787.47;4434548;32;20767;-74
2021/05/21 11:08:59;;;;;;;1.33;0.30;;;;;;;16.94;59.05;97784.47;4430788;32;20487;-74
2021/05/21 11:19:50;;;;;;;2.00;0.30;;;;;;;17.79;56.58;97780.47;3978856;32;15022124;-79
2021/05/21 11:22:24;;;;;;;1.45;0.40;;;;;;;17.79;56.58;97780.47;4423738;32;20067;-76
2021/05/21 11:24:54;;;;;;;1.15;0.30;;;;;;;17.96;55.78;97783.63;4426929;32;20065;-77
2021/05/21 11:27:23;;;;;;;3.83;0.93;;;;;;;17.65;56.33;97788.31;4424160;32;20092;-79
2021/05/21 11:29:52;;;;;;;2.75;0.40;;;;;;;17.77;58.29;97786.72;4419181;32;20069;-79
2021/05/21 11:32:22;;;;;;;2.45;0.50;;;;;;;17.37;58.97;97779.75;4421030;32;20083;-82
2021/05/21 11:34:49;;;;;;;1.20;0.35;;;;;;;17.17;58.76;97788.28;4415866;32;20077;-83
2021/05/21 11:37:20;;;;;;;1.55;0.30;;;;;;;17.06;58.38;97786.47;4421742;32;20109;-81
2021/05/21 11:39:46;;;;;;;2.50;0.40;;;;;;;16.83;59.31;97779.03;4426842;32;20041;-80
2021/05/21 11:42:12;;;;;;;2.03;0.52;;;;;;;16.67;60.00;97792.31;4425193;32;20135;-80
2021/05/21 11:44:38;;;;;;;0.95;0.20;;;;;;;16.52;59.33;97792.16;4424529;32;20473;-83
2021/05/21 11:47:06;;;;;;;4.97;0.20;;;;;;;16.54;59.12;97777.41;4427080;32;20093;-79
2021/05/21 11:49:33;;;;;;;3.33;0.22;;;;;;;16.38;59.80;97779.25;4426281;32;20117;-78
2021/05/21 11:52:03;;;;;;;0.60;0.30;;;;;;;16.52;59.56;97789.31;4427477;32;21130;-77
2021/05/21 11:54:30;;;;;;;1.65;0.35;;;;;;;16.13;60.76;97777.25;4426903;32;20606;-79
2021/05/21 11:56:58;;;;;;;1.55;0.30;;;;;;;16.25;60.94;97776.44;4428887;32;20075;-76
2021/05/21 11:59:24;;;;;;;0.50;0.40;;;;;;;16.67;59.90;97771.69;4423730;32;20053;-79
2021/05/21 12:01:54;;;;;;;0.77;0.30;;;;;;;17.29;57.62;97763.94;4418038;32;20049;-77
2021/05/21 12:04:21;;;;;;;4.82;0.68;;;;;;;17.57;56.06;97761.16;4417486;32;20034;-79
2021/05/21 12:06:51;;;;;;;1.58;0.50;;;;;;;18.04;55.11;97761.66;4417143;32;20211;-81